Latest Weather Observations for Yulara

IDD60801

Issued at 6:31 am CST Wednesday 25 January 2017 (issued every 30 minutes, with the page automatically refreshed every 10 minutes)

About weather observations | Map of weather stations | Latest weather observations for NT | Other Formats
Station Details ID: 015635 Name: YULARA AIRPORT Lat: -25.19 Lon: 130.97 Height: 492.0 m
Data from the previous 72 hours. | See also: Recent months at Yulara
Date/Time
CST
Temp
°C
App
Temp
°C
Dew
Point
°C
Rel
Hum
%
Delta-T
°C
Wind Press
QNH
hPa
Press
MSL
hPa
Rain since
9am
mm
Dir  Spd
km/h
Gust
km/h
Spd
kts
Gust
kts
25/06:30am 21.8 21.9 19.9 89 1.2 E 19 24 10 13 1017.9 1014.0 0.2
25/06:00am 21.6 21.4 19.7 89 1.2 E 20 32 11 17 1017.5 1013.6 0.2
25/05:30am 21.7 22.1 19.8 89 1.2 ESE 17 22 9 12 1017.1 1013.2 0.2
25/05:00am 21.5 21.2 19.6 89 1.2 ESE 20 28 11 15 1016.4 1012.5 0.2
25/04:30am 21.4 20.9 19.9 91 1.0 ESE 22 32 12 17 1016.3 1012.4 0.2
25/04:00am 21.9 21.7 19.8 88 1.4 ESE 20 30 11 16 1016.2 1012.3 0.2
25/03:30am 21.8 21.9 19.9 89 1.2 ESE 19 28 10 15 1016.2 1012.3 0.2
25/03:00am 22.0 21.8 19.7 87 1.5 ESE 20 28 11 15 1015.9 1012.0 0.2
25/02:30am 21.9 21.0 19.8 88 1.4 SE 24 32 13 17 1016.0 1012.1 0.2
25/02:00am 22.4 22.4 20.1 87 1.5 SE 20 28 11 15 1016.1 1012.2 0.2
25/01:30am 22.2 22.2 19.7 86 1.6 SE 19 28 10 15 1016.1 1012.2 0.2
25/01:00am 22.6 23.0 19.9 85 1.8 ESE 17 22 9 12 1016.4 1012.5 0.2
25/12:30am 22.6 23.8 19.9 85 1.8 ESE 13 20 7 11 1016.6 1012.7 0.2
25/12:00am 22.5 22.6 19.9 85 1.7 SE 19 24 10 13 1016.5 1012.6 0.2
 
Date/Time
CST
Temp
°C
App
Temp
°C
Dew
Point
°C
Rel
Hum
%
Delta-T
°C
Wind Press
QNH
hPa
Press
MSL
hPa
Rain since
9am
mm
Dir  Spd
km/h
Gust
km/h
Spd
kts
Gust
kts
24/11:30pm 22.5 22.8 19.7 84 1.8 SE 17 24 9 13 1016.6 1012.7 0.2
24/11:12pm 22.7 22.7 19.7 83 2.0 SE 19 26 10 14 1016.8 1012.8 0.2
24/11:00pm 22.7 22.8 19.9 84 1.8 ESE 19 26 10 14 1016.8 1012.8 0.2
24/10:30pm 22.7 22.8 20.0 85 1.8 ESE 19 26 10 14 1016.4 1012.5 0.2
24/10:00pm 22.7 22.6 20.0 85 1.8 SE 20 30 11 16 1016.1 1012.2 0.2
24/09:30pm 23.0 23.3 20.5 86 1.7 ESE 19 28 10 15 1015.7 1011.8 0.2
24/09:00pm 23.0 23.8 20.7 87 1.5 ESE 17 22 9 12 1015.3 1011.4 0.2
24/08:30pm 23.3 23.7 21.0 87 1.5 ESE 20 32 11 17 1015.3 1011.4 0.2
24/08:00pm 24.5 24.4 20.8 80 2.5 ESE 22 33 12 18 1015.3 1011.4 0.2
24/07:30pm 25.2 26.1 20.9 77 2.9 ESE 17 22 9 12 1014.8 1010.8 0.2
24/07:00pm 25.0 25.3 20.7 77 2.9 ESE 20 28 11 15 1014.3 1010.4 0.2
24/06:30pm 25.1 25.3 20.6 76 3.0 ESE 20 30 11 16 1013.9 1010.0 0.2
24/06:00pm 24.9 24.8 20.8 78 2.7 SE 22 32 12 17 1013.1 1009.1 0.2
24/05:30pm 25.0 25.4 20.9 78 2.7 SE 20 28 11 15 1012.9 1008.9 0.2
24/05:00pm 24.8 25.2 20.9 79 2.6 SE 20 32 11 17 1012.6 1008.6 0.2
24/04:30pm 24.9 25.3 20.6 77 2.9 SSE 19 24 10 13 1012.8 1008.8 0.2
24/04:00pm 24.8 25.7 20.9 79 2.6 SSE 17 28 9 15 1013.1 1009.1 0.2
24/03:30pm 24.8 24.6 20.5 77 2.9 SSE 22 32 12 17 1013.2 1009.3 0.2
24/03:00pm 25.0 24.8 20.5 76 3.0 SE 22 35 12 19 1013.5 1009.6 0.2
24/02:30pm 24.8 23.8 20.5 77 2.9 SE 26 35 14 19 1013.9 1010.0 0.2
24/02:00pm 24.6 24.0 20.5 78 2.7 SE 24 33 13 18 1014.4 1010.5 0.2
24/01:30pm 24.3 23.7 20.6 80 2.5 SSE 24 35 13 19 1014.7 1010.7 0.2
24/01:00pm 24.5 24.3 20.6 79 2.6 SSE 22 32 12 17 1014.8 1010.8 0.2
24/12:30pm 24.0 23.6 20.9 83 2.1 SE 24 33 13 18 1014.9 1010.9 0.2
24/12:00pm 24.4 23.8 20.5 79 2.6 SE 24 33 13 18 1014.9 1010.9 0.2
24/11:30am 24.7 24.1 20.6 78 2.7 SSE 24 35 13 19 1014.8 1010.8 0.2
24/11:00am 24.3 23.8 20.8 81 2.3 SSE 24 35 13 19 1014.8 1010.8 0.2
24/10:30am 24.0 24.1 21.1 84 1.9 SSE 22 33 12 18 1014.7 1010.7 0.2
24/10:29am 24.0 24.1 21.1 84 1.9 SSE 22 33 12 18 1014.7 1010.7 0.2
24/10:00am 22.5 21.4 21.1 92 0.9 SSE 28 37 15 20 1014.9 1010.9 0.0
24/09:30am 21.9 22.2 21.6 98 0.2 SSE 22 37 12 20 1014.9 1010.9 0.0
24/09:09am 21.9 23.0 21.9 100 0.0 S 19 26 10 14 1014.8 1010.8 0.0
24/09:00am 21.8 22.6 21.8 100 0.0 SSE 20 30 11 16 1014.5 1010.6 17.2
24/08:30am 22.1 23.7 22.1 100 0.0 SSE 17 22 9 12 1014.5 1010.6 16.2
24/08:00am 22.4 23.2 22.4 100 0.0 S 22 30 12 16 1014.0 1010.1 8.4
24/07:42am 23.3 25.9 23.3 100 0.0 SSE 15 22 8 12 1013.7 1009.8 7.4
24/07:35am 23.4 25.9 23.2 99 0.1 SSE 15 24 8 13 1013.7 1009.8 7.0
24/07:30am 23.5 26.6 23.5 100 0.0 SE 13 24 7 13 1013.7 1009.8 6.8
24/07:23am 23.7 27.3 23.7 100 0.0 SSE 11 17 6 9 1013.6 1009.7 6.6
24/07:15am 23.7 27.3 23.7 100 0.0 SSE 11 17 6 9 1013.5 1009.6 6.0
24/07:00am 23.7 27.7 23.7 100 0.0 S 9 13 5 7 1013.3 1009.4 5.8
24/06:30am 23.8 27.8 23.8 100 0.0 S 9 13 5 7 1012.8 1008.8 5.8
24/06:00am 23.8 28.2 23.8 100 0.0 SSW 7 11 4 6 1012.1 1008.2 5.6
24/05:30am 23.8 29.4 23.6 99 0.1 CALM 0 6 0 3 1011.8 1007.9 5.6
24/05:00am 24.0 28.1 24.0 100 0.0 E 9 11 5 6 1011.8 1007.9 5.4
24/04:45am 24.0 28.0 23.8 99 0.1 ESE 9 11 5 6 1011.8 1007.9 5.4
24/04:30am 23.9 27.6 23.9 100 0.0 ESE 11 17 6 9 1011.8 1007.9 5.2
24/04:18am 24.0 27.4 24.0 100 0.0 ESE 13 20 7 11 1011.8 1007.9 5.2
24/04:00am 24.0 27.6 23.8 99 0.1 ESE 11 15 6 8 1011.7 1007.8 5.2
24/03:30am 24.0 28.1 24.0 100 0.0 ESE 9 13 5 7 1011.4 1007.5 5.0
24/03:00am 23.8 28.0 23.5 98 0.2 ESE 7 9 4 5 1011.3 1007.3 4.6
24/02:30am 23.7 27.1 23.4 98 0.2 SE 11 15 6 8 1011.1 1007.1 3.8
24/02:00am 23.8 28.7 23.6 99 0.1 SSE 4 7 2 4 1010.9 1006.9 3.2
24/01:30am 23.8 28.0 23.5 98 0.2 SSE 7 9 4 5 1011.0 1007.0 2.6
24/01:00am 24.1 28.3 23.4 96 0.5 ESE 7 9 4 5 1011.3 1007.3 1.4
24/12:30am 24.6 27.3 22.8 90 1.2 SE 13 17 7 9 1011.8 1007.9 0.6
24/12:00am 25.1 28.2 22.8 87 1.6 ESE 11 15 6 8 1011.8 1007.9 0.4
 
Date/Time
CST
Temp
°C
App
Temp
°C
Dew
Point
°C
Rel
Hum
%
Delta-T
°C
Wind Press
QNH
hPa
Press
MSL
hPa
Rain since
9am
mm
Dir  Spd
km/h
Gust
km/h
Spd
kts
Gust
kts
23/11:30pm 25.6 29.4 22.7 84 2.0 SW 7 11 4 6 1012.1 1008.2 0.2
23/11:00pm 25.5 28.5 22.6 84 2.0 SSW 11 15 6 8 1012.1 1008.2 0.2
23/10:30pm 25.6 27.9 22.1 81 2.4 S 13 19 7 10 1012.2 1008.3 0.2
23/10:00pm 25.8 26.4 22.1 80 2.5 S 22 32 12 17 1011.2 1007.2 0.2
23/09:30pm 25.7 25.3 22.4 82 2.3 S 28 43 15 23 1010.4 1006.4 0.2
23/09:07pm 25.6 25.2 23.1 86 1.7 S 30 48 16 26 1010.2 1006.3 0.0
23/09:00pm 25.8 24.5 22.5 82 2.3 SSW 33 48 18 26 1010.2 1006.3 0.0
23/08:30pm 28.9 29.4 21.1 62 5.3 SW 20 50 11 27 1009.3 1005.3 0.0
23/08:28pm 29.6 31.2 21.5 61 5.5 SW 15 46 8 25 1009.2 1005.2 0.0
23/08:00pm 31.3 35.0 22.3 58 6.2 SSW 6 7 3 4 1008.0 1004.1 0.0
23/07:30pm 31.9 36.0 22.3 56 6.7 W 4 6 2 3 1007.7 1003.8 0.0
23/07:00pm 33.1 35.8 21.3 50 8.1 W 9 13 5 7 1007.5 1003.5 0.0
23/06:30pm 32.7 34.7 22.2 54 7.3 WNW 15 20 8 11 1007.1 1003.1 0.0
23/06:00pm 32.3 34.2 22.7 57 6.7 NW 17 20 9 11 1006.9 1002.9 0.0
23/05:30pm 33.2 36.1 21.7 51 8.0 NW 9 17 5 9 1006.6 1002.6 0.0
23/05:00pm 34.3 36.9 22.0 48 8.5 NW 11 20 6 11 1006.3 1002.3 0.0
23/04:30pm 33.7 36.1 21.5 49 8.4 WNW 11 15 6 8 1006.3 1002.3 0.0
23/04:00pm 33.3 35.7 21.5 50 8.1 WSW 11 19 6 10 1006.5 1002.5 0.0
23/03:30pm 33.0 36.2 22.4 53 7.4 NNW 9 17 5 9 1007.0 1003.0 0.0
23/03:00pm 32.9 36.5 23.0 56 7.0 NNW 9 17 5 9 1007.6 1003.7 0.0
23/02:30pm 31.7 34.2 21.8 55 6.8 NNW 11 19 6 10 1008.3 1004.3 0.0
23/02:00pm 31.4 34.3 21.8 56 6.6 NNE 9 17 5 9 1008.8 1004.8 0.0
23/01:30pm 30.7 33.6 21.8 59 6.1 N 9 17 5 9 1009.5 1005.6 0.0
23/01:00pm 30.7 34.2 22.8 62 5.5 NNW 9 19 5 10 1010.2 1006.3 0.0
23/12:30pm 30.2 33.4 22.4 63 5.4 WNW 9 11 5 6 1010.8 1006.8 0.0
23/12:00pm 29.7 32.7 21.9 63 5.4 WNW 9 11 5 6 1011.1 1007.1 0.0
23/11:30am 29.5 32.1 22.0 64 5.2 NNE 11 17 6 9 1011.3 1007.3 0.0
23/11:00am 29.6 32.4 22.3 65 5.0 ENE 11 19 6 10 1011.5 1007.6 0.0
23/10:30am 28.1 30.7 22.6 72 3.8 NNE 13 19 7 10 1011.8 1007.9 0.0
23/10:00am 27.5 29.0 22.7 75 3.3 NE 19 24 10 13 1011.9 1008.0 0.0
23/09:30am 26.9 28.9 22.9 79 2.8 ENE 17 20 9 11 1011.9 1008.0 0.0
23/09:00am 26.0 27.2 22.1 79 2.7 ENE 19 24 10 13 1011.7 1007.8 6.4
23/08:30am 25.6 27.4 22.5 83 2.1 ENE 17 20 9 11 1011.4 1007.5 6.4
23/08:00am 25.2 27.0 21.9 82 2.2 E 15 19 8 10 1010.8 1006.8 6.4
23/07:30am 24.3 27.2 22.4 89 1.3 ENE 11 13 6 7 1010.0 1006.1 6.4
23/07:00am 24.1 28.9 22.2 89 1.3 CALM 0 0 0 0 1009.4 1005.4 6.4
23/06:30am 23.9 26.8 21.8 88 1.4 SSE 9 13 5 7 1009.0 1005.0 6.4
23/06:00am 23.7 26.4 22.1 91 1.1 SSE 11 13 6 7 1008.9 1004.9 6.4
23/05:30am 23.5 26.5 21.9 91 1.1 WNW 9 17 5 9 1008.5 1004.5 6.4
23/05:00am 23.5 25.1 22.1 92 0.9 N 17 22 9 12 1008.0 1004.1 6.4
23/04:30am 23.4 25.0 22.2 93 0.8 NNW 17 22 9 12 1008.0 1004.1 6.4
23/04:00am 23.4 23.2 21.3 88 1.4 NNW 24 35 13 19 1007.8 1003.9 6.4
23/03:30am 23.2 23.2 22.4 95 0.5 NNW 26 37 14 20 1007.4 1003.4 6.4
23/03:00am 23.8 24.9 22.4 92 1.0 NNW 20 35 11 19 1007.7 1003.8 6.0
23/02:30am 23.9 23.8 22.2 90 1.2 NNW 26 39 14 21 1008.4 1004.4 6.0
23/02:00am 24.4 24.1 22.5 89 1.3 NNW 28 35 15 19 1008.4 1004.4 6.0
23/01:30am 25.0 24.9 22.9 88 1.4 NNW 28 43 15 23 1008.6 1004.6 6.0
23/01:00am 25.7 26.4 23.0 85 1.9 NNW 24 35 13 19 1008.8 1004.8 6.0
23/12:39am 27.6 27.7 23.2 77 3.1 N 28 44 15 24 1008.7 1004.7 6.0
23/12:30am 27.7 31.0 24.5 83 2.3 N 15 22 8 12 1008.5 1004.5 6.0
23/12:00am 27.7 34.1 26.6 94 0.8 NW 6 11 3 6 1008.5 1004.5 6.0
 
Date/Time
CST
Temp
°C
App
Temp
°C
Dew
Point
°C
Rel
Hum
%
Delta-T
°C
Wind Press
QNH
hPa
Press
MSL
hPa
Rain since
9am
mm
Dir  Spd
km/h
Gust
km/h
Spd
kts
Gust
kts
22/11:30pm 27.7 34.2 26.8 95 0.7 NW 6 7 3 4 1008.6 1004.6 6.0
22/11:00pm 28.0 35.5 26.6 92 1.0 CALM 0 0 0 0 1008.6 1004.6 6.0
22/10:30pm 28.7 34.2 25.3 82 2.4 ENE 6 7 3 4 1008.5 1004.5 6.0
22/10:00pm 28.4 34.5 26.2 88 1.6 E 6 7 3 4 1008.5 1004.5 6.0
22/09:30pm 28.0 35.4 26.4 91 1.2 CALM 0 0 0 0 1008.4 1004.4 6.0
22/09:00pm 28.0 34.0 26.0 89 1.4 SE 6 6 3 3 1008.2 1004.2 6.0
22/08:30pm 28.2 34.0 26.0 88 1.6 SE 7 9 4 5 1007.9 1004.0 6.0
22/08:00pm 28.4 34.6 26.4 89 1.4 SSE 6 9 3 5 1007.4 1003.4 6.0
22/07:30pm 29.0 35.5 26.8 88 1.6 SSE 6 9 3 5 1007.1 1003.1 6.0
22/07:00pm 29.5 35.6 26.5 84 2.2 E 7 7 4 4 1007.0 1003.0 6.0
22/06:30pm 29.7 34.6 24.6 74 3.6 ENE 7 11 4 6 1006.8 1002.8 6.0
22/06:00pm 28.3 34.3 26.1 88 1.6 SSW 6 9 3 5 1006.7 1002.7 6.0
22/05:30pm 28.2 32.8 24.2 79 2.8 SSE 7 11 4 6 1006.9 1002.9 6.0
22/05:00pm 27.6 30.6 24.6 84 2.1 ENE 17 22 9 12 1007.0 1003.0 6.0
22/04:37pm 27.3 28.7 24.2 83 2.2 NE 24 35 13 19 1007.7 1003.8 5.8
22/04:30pm 26.4 27.3 23.9 86 1.8 NNE 26 35 14 19 1007.9 1004.0 5.6
22/04:14pm 27.1 26.4 22.5 76 3.2 N 30 48 16 26 1008.7 1004.7 2.8
22/04:13pm 27.4 26.4 23.0 77 3.0 N 33 48 18 26 1008.7 1004.7 2.2
22/04:00pm 31.3 32.5 21.5 56 6.7 NNW 17 46 9 25 1008.0 1004.1 0.0
22/03:59pm 31.4 32.9 21.3 55 6.9 NNW 15 46 8 25 1008.0 1004.1 0.0
22/03:30pm 36.0 36.8 19.9 39 11.0 WNW 15 22 8 12 1007.6 1003.7 0.0
22/03:00pm 36.1 37.1 19.5 37 11.2 WSW 13 24 7 13 1007.6 1003.7 0.0
22/02:30pm 34.6 35.4 19.8 41 10.0 W 15 22 8 12 1008.4 1004.4 0.0
22/02:00pm 35.4 37.3 20.5 41 10.2 N 11 19 6 10 1009.0 1005.0 0.0
22/01:30pm 34.8 37.5 22.2 48 8.8 W 11 17 6 9 1009.4 1005.4 0.0
22/01:00pm 34.1 36.0 20.5 45 9.3 WNW 11 19 6 10 1010.0 1006.1 0.0
22/12:30pm 33.6 35.3 21.7 49 8.2 N 15 24 8 13 1010.5 1006.5 0.0
22/12:00pm 33.5 35.9 22.3 52 7.8 N 13 30 7 16 1010.8 1006.8 0.0
22/11:30am 31.9 33.7 21.1 52 7.4 NNE 13 19 7 10 1011.2 1007.2 0.0
22/11:00am 32.0 34.3 22.7 58 6.5 N 15 22 8 12 1011.5 1007.6 0.0
22/10:30am 31.1 33.8 22.1 58 6.2 NNW 11 19 6 10 1011.7 1007.8 0.0
22/10:00am 30.5 34.0 22.9 64 5.3 NNW 9 15 5 8 1011.6 1007.7 0.0
22/09:30am 29.6 34.3 23.3 69 4.4 NNE 4 11 2 6 1011.9 1008.0 0.0
22/09:00am 28.4 32.6 22.4 70 4.1 ENE 4 9 2 5 1011.8 1007.9 3.2
22/08:30am 28.0 33.2 22.9 74 3.5 CALM 0 0 0 0 1011.6 1007.7 3.0
22/08:00am 27.4 31.5 23.2 78 2.9 E 7 11 4 6 1011.3 1007.3 3.0
22/07:30am 26.7 30.9 22.5 78 2.9 NNE 4 7 2 4 1011.2 1007.2 3.0
22/07:00am 25.5 30.6 23.4 88 1.5 W 2 7 1 4 1011.1 1007.1 3.0

Other Formats:

Comma delimited format used in spreadsheet applications
http://www.bom.gov.au/fwo/IDD60801/IDD60801.94462.axf

JavaScript Object Notation format (JSON) in row-major order
http://www.bom.gov.au/fwo/IDD60801/IDD60801.94462.json